Time;durP1;ratioP1;P1;durP2;ratioP2;P2;SDS_P1;SDS_P2;PMS_P1;PMS_P2;Temp;Humidity;BMP_temperature;BMP_pressure;BME280_temperature;BME280_humidity;BME280_pressure;Samples;Min_cycle;Max_cycle;Signal;HPM_P1;HPM_P2
2023/07/28 00:00:58;;;;;;;2.20;2.10;;;25.30;57.00;;;;;;5000627;28;20483;-81
2023/07/28 00:03:26;;;;;;;2.70;2.60;;;25.30;57.40;;;;;;5019524;28;20480;-81
2023/07/28 00:05:54;;;;;;;2.80;2.60;;;25.40;57.20;;;;;;5006107;28;20412;-81
2023/07/28 00:08:22;;;;;;;2.73;2.53;;;25.30;57.20;;;;;;4990030;28;20468;-80
2023/07/28 00:10:50;;;;;;;2.83;2.63;;;25.30;57.70;;;;;;5009984;28;20430;-81
2023/07/28 00:13:19;;;;;;;3.17;2.97;;;25.30;57.40;;;;;;5016228;28;20423;-80
2023/07/28 00:15:47;;;;;;;4.57;4.17;;;25.30;57.30;;;;;;4995265;28;20507;-80
2023/07/28 00:18:18;;;;;;;3.87;3.57;;;25.30;57.40;;;;;;4996462;28;20446;-80
2023/07/28 00:20:46;;;;;;;5.47;4.20;;;25.30;57.30;;;;;;5001139;28;20477;-80
2023/07/28 00:23:14;;;;;;;5.37;4.87;;;25.30;57.40;;;;;;5009558;28;20428;-80
2023/07/28 00:25:43;;;;;;;8.27;5.80;;;25.30;57.30;;;;;;4998191;28;20454;-80
2023/07/28 00:28:11;;;;;;;6.93;6.23;;;25.20;57.10;;;;;;5002424;28;20415;-80
2023/07/28 00:30:40;;;;;;;8.40;7.30;;;25.20;57.00;;;;;;5005480;28;20436;-81
2023/07/28 00:33:08;;;;;;;8.80;7.90;;;25.20;56.90;;;;;;5000978;28;20476;-80
2023/07/28 00:35:36;;;;;;;10.20;8.90;;;25.20;56.80;;;;;;4996329;28;20453;-80
2023/07/28 00:38:04;;;;;;;12.50;9.97;;;25.20;56.80;;;;;;4997683;28;20442;-80
2023/07/28 00:40:32;;;;;;;12.90;10.10;;;25.20;56.80;;;;;;4997944;28;20516;-81
2023/07/28 00:42:59;;;;;;;11.50;10.10;;;25.20;56.70;;;;;;4996621;28;20438;-80
2023/07/28 00:45:28;;;;;;;12.37;10.10;;;25.20;56.70;;;;;;5004554;28;20524;-80
2023/07/28 00:47:58;;;;;;;10.63;9.53;;;25.20;56.80;;;;;;4989775;28;20433;-80
2023/07/28 00:50:27;;;;;;;10.67;9.57;;;25.30;56.80;;;;;;4992824;28;20434;-80
2023/07/28 00:52:55;;;;;;;13.40;10.73;;;25.20;56.90;;;;;;4996000;28;20503;-80
2023/07/28 00:55:23;;;;;;;12.30;10.20;;;25.30;56.90;;;;;;4995210;28;20478;-80
2023/07/28 00:57:51;;;;;;;12.40;10.73;;;25.30;57.00;;;;;;5014799;28;20479;-80
2023/07/28 01:00:19;;;;;;;12.00;10.60;;;25.20;57.00;;;;;;5015340;28;20533;-80
2023/07/28 01:02:47;;;;;;;12.20;9.90;;;25.20;57.00;;;;;;4992439;28;20532;-80
2023/07/28 01:05:17;;;;;;;11.40;10.10;;;25.20;56.90;;;;;;5001397;28;20503;-80
2023/07/28 01:07:54;;;;;;;12.47;10.43;;;25.20;56.90;;;;;;4995335;28;20408;-80
2023/07/28 01:10:25;;;;;;;12.10;10.40;;;25.20;56.90;;;;;;4995371;28;20496;-81
2023/07/28 01:12:53;;;;;;;12.90;10.40;;;25.20;57.00;;;;;;4996202;28;20500;-80
2023/07/28 01:15:21;;;;;;;12.70;10.27;;;25.20;56.80;;;;;;5001940;28;20559;-80
2023/07/28 01:17:48;;;;;;;12.20;10.30;;;25.20;57.50;;;;;;5000170;28;20411;-80
2023/07/28 01:20:18;;;;;;;11.83;10.50;;;25.20;56.80;;;;;;5015600;28;20415;-80
2023/07/28 01:22:56;;;;;;;11.97;10.67;;;25.20;56.90;;;;;;4996390;28;20462;-81
2023/07/28 01:25:29;;;;;;;11.80;10.07;;;25.20;56.90;;;;;;5008555;28;20551;-80
2023/07/28 01:27:58;;;;;;;11.33;9.37;;;25.20;56.80;;;;;;5001707;28;20482;-80
2023/07/28 01:30:26;;;;;;;12.90;10.50;;;25.20;56.80;;;;;;4994323;28;20464;-80
2023/07/28 01:32:55;;;;;;;12.30;10.30;;;25.20;56.70;;;;;;5012586;28;20435;-80
2023/07/28 01:35:23;;;;;;;13.00;10.50;;;25.20;56.60;;;;;;5029475;28;20516;-80
2023/07/28 01:37:51;;;;;;;12.70;10.17;;;25.20;56.70;;;;;;5000216;28;20955;-82
2023/07/28 01:40:19;;;;;;;11.73;10.53;;;25.20;56.70;;;;;;4999676;28;20500;-81
2023/07/28 01:42:47;;;;;;;11.70;10.30;;;25.20;56.60;;;;;;5000617;28;20500;-81
2023/07/28 01:45:16;;;;;;;11.60;10.07;;;25.20;56.60;;;;;;5016185;28;20439;-82
2023/07/28 01:47:44;;;;;;;14.00;11.10;;;25.20;56.50;;;;;;5014800;28;20471;-81
2023/07/28 01:50:12;;;;;;;16.33;10.30;;;25.20;56.50;;;;;;5010524;28;20535;-82
2023/07/28 01:52:40;;;;;;;11.77;9.83;;;25.20;56.60;;;;;;4995930;28;20456;-82
2023/07/28 01:55:09;;;;;;;13.27;10.20;;;25.20;56.60;;;;;;4997228;28;20522;-82
2023/07/28 01:57:40;;;;;;;12.67;9.87;;;25.20;56.60;;;;;;4995742;28;20440;-80
2023/07/28 02:00:09;;;;;;;11.40;9.23;;;25.20;56.80;;;;;;4987470;28;20440;-81
2023/07/28 02:02:38;;;;;;;11.23;9.80;;;25.20;56.80;;;;;;5003683;28;20489;-80
2023/07/28 02:05:06;;;;;;;10.90;9.60;;;25.20;57.10;;;;;;4997553;28;20447;-81
2023/07/28 02:07:34;;;;;;;10.13;8.87;;;25.20;57.00;;;;;;4997092;28;20442;-81
2023/07/28 02:10:03;;;;;;;12.70;9.63;;;25.20;57.00;;;;;;4996370;28;20440;-80
2023/07/28 02:12:31;;;;;;;9.67;8.67;;;25.20;57.00;;;;;;4996349;28;20453;-80
2023/07/28 02:15:00;;;;;;;10.80;9.43;;;25.20;57.10;;;;;;4994060;28;20528;-80
2023/07/28 02:17:28;;;;;;;11.90;9.50;;;25.20;57.10;;;;;;4997118;28;20531;-79
2023/07/28 02:19:57;;;;;;;9.87;8.87;;;25.10;56.90;;;;;;4999833;28;20423;-80
2023/07/28 02:22:25;;;;;;;9.80;8.80;;;25.10;57.00;;;;;;5015397;28;20511;-80
2023/07/28 02:24:53;;;;;;;9.87;8.50;;;25.20;57.00;;;;;;5007130;28;20458;-80
2023/07/28 02:27:21;;;;;;;9.87;8.87;;;25.10;57.00;;;;;;5000374;28;20441;-80
2023/07/28 02:29:49;;;;;;;12.43;9.50;;;25.10;56.90;;;;;;4995297;28;20542;-81
2023/07/28 02:32:17;;;;;;;9.40;8.50;;;25.10;56.90;;;;;;5006342;28;20444;-80
2023/07/28 02:34:45;;;;;;;9.60;8.43;;;25.10;56.80;;;;;;5016271;28;20534;-80
2023/07/28 02:37:15;;;;;;;12.63;9.20;;;25.10;56.70;;;;;;5010387;28;20408;-81
2023/07/28 02:39:44;;;;;;;10.70;9.17;;;25.10;56.70;;;;;;5004245;28;20474;-81
2023/07/28 02:42:12;;;;;;;10.47;8.53;;;25.10;56.80;;;;;;4991642;28;20529;-80
2023/07/28 02:44:40;;;;;;;9.60;8.60;;;25.10;56.60;;;;;;5005576;28;20566;-80
2023/07/28 02:47:08;;;;;;;8.83;7.93;;;25.10;56.80;;;;;;5007239;28;20853;-80
2023/07/28 02:49:36;;;;;;;9.37;8.37;;;25.10;56.60;;;;;;5003897;28;20424;-81
2023/07/28 02:52:04;;;;;;;10.87;8.80;;;25.10;56.70;;;;;;4996777;28;20420;-80
2023/07/28 02:54:33;;;;;;;9.90;8.30;;;25.10;56.80;;;;;;4996450;28;20432;-81
2023/07/28 02:57:02;;;;;;;8.67;7.60;;;25.10;56.60;;;;;;4995340;28;20440;-80
2023/07/28 02:59:29;;;;;;;9.17;8.00;;;25.10;56.70;;;;;;4991474;28;20481;-80
2023/07/28 03:01:57;;;;;;;9.40;8.40;;;25.10;56.60;;;;;;4996048;28;20477;-80
2023/07/28 03:04:25;;;;;;;9.03;8.03;;;25.10;56.70;;;;;;4989872;28;20455;-80
2023/07/28 03:06:53;;;;;;;8.40;7.50;;;25.10;56.40;;;;;;4988735;28;20444;-80
2023/07/28 03:09:21;;;;;;;9.57;8.13;;;25.10;56.60;;;;;;4991242;28;20462;-80
2023/07/28 03:11:51;;;;;;;9.40;8.00;;;25.10;56.60;;;;;;5005631;28;20451;-80
2023/07/28 03:14:19;;;;;;;8.10;7.30;;;25.10;56.60;;;;;;5005537;28;20540;-80
2023/07/28 03:16:46;;;;;;;9.00;7.37;;;25.10;57.20;;;;;;4999163;28;20416;-80
2023/07/28 03:19:15;;;;;;;8.07;7.27;;;25.10;56.70;;;;;;5018565;28;20801;-80
2023/07/28 03:21:42;;;;;;;8.03;7.23;;;25.10;56.70;;;;;;5011555;28;20494;-80
2023/07/28 03:24:10;;;;;;;7.37;6.67;;;25.10;56.60;;;;;;4999642;28;20526;-81
2023/07/28 03:26:38;;;;;;;9.03;7.20;;;25.10;56.80;;;;;;4999475;28;20447;-81
2023/07/28 03:29:07;;;;;;;7.57;6.37;;;25.10;56.70;;;;;;4992350;28;20499;-82
2023/07/28 03:31:35;;;;;;;7.13;6.43;;;25.10;56.70;;;;;;5000229;28;20456;-82
2023/07/28 03:34:03;;;;;;;8.10;6.50;;;25.10;56.70;;;;;;4999684;28;20427;-81
2023/07/28 03:36:31;;;;;;;7.77;6.77;;;25.10;56.60;;;;;;5000438;28;20461;-82
2023/07/28 03:39:00;;;;;;;7.80;6.70;;;25.10;56.60;;;;;;4997822;28;20448;-81
2023/07/28 03:41:28;;;;;;;6.20;5.70;;;25.10;56.60;;;;;;5003962;28;20506;-82
2023/07/28 03:43:56;;;;;;;7.10;6.40;;;25.20;56.60;;;;;;5010808;28;20487;-81
2023/07/28 03:46:25;;;;;;;7.53;6.50;;;25.10;56.60;;;;;;5011785;28;20412;-82
2023/07/28 03:48:58;;;;;;;6.63;5.90;;;25.10;56.50;;;;;;5010272;28;20409;-82
2023/07/28 03:51:26;;;;;;;7.07;6.43;;;25.10;56.50;;;;;;5000401;28;20430;-82
2023/07/28 03:53:54;;;;;;;5.87;5.37;;;25.10;56.60;;;;;;4998155;28;20459;-82
2023/07/28 03:56:22;;;;;;;7.07;6.40;;;25.10;56.60;;;;;;4989322;28;20499;-82
2023/07/28 03:58:51;;;;;;;6.60;5.87;;;25.10;56.60;;;;;;5014637;28;20458;-81
2023/07/28 04:01:21;;;;;;;6.00;5.50;;;25.20;56.60;;;;;;5019350;28;20449;-82
2023/07/28 04:03:50;;;;;;;6.23;5.73;;;25.20;56.50;;;;;;5010007;28;21014;-82
2023/07/28 04:06:18;;;;;;;6.00;5.10;;;25.10;56.50;;;;;;5004513;28;20535;-81
2023/07/28 04:08:46;;;;;;;6.00;5.40;;;25.10;56.60;;;;;;5016738;28;20518;-81
2023/07/28 04:11:14;;;;;;;6.77;5.57;;;25.10;56.50;;;;;;4998739;28;20439;-81
2023/07/28 04:13:42;;;;;;;5.67;5.17;;;25.20;57.20;;;;;;4994599;28;20998;-82
2023/07/28 04:16:10;;;;;;;5.70;5.20;;;25.20;56.50;;;;;;4998220;28;20451;-82
2023/07/28 04:18:38;;;;;;;5.70;5.20;;;25.20;56.60;;;;;;5001869;28;20508;-81
2023/07/28 04:21:08;;;;;;;5.57;5.10;;;25.20;56.60;;;;;;4998801;28;20538;-82
2023/07/28 04:23:36;;;;;;;6.67;4.93;;;25.20;56.60;;;;;;5011517;28;20443;-78
2023/07/28 04:26:04;;;;;;;6.13;5.60;;;25.20;56.60;;;;;;5006755;28;20448;-81
2023/07/28 04:28:32;;;;;;;5.77;5.20;;;25.20;56.60;;;;;;5008224;28;20486;-81
2023/07/28 04:31:00;;;;;;;5.60;5.07;;;25.20;56.50;;;;;;4994182;28;20474;-81
2023/07/28 04:33:28;;;;;;;5.10;4.70;;;25.20;56.60;;;;;;4993690;28;20449;-81
2023/07/28 04:35:56;;;;;;;5.10;4.70;;;25.20;56.60;;;;;;4994607;28;20527;-82
2023/07/28 04:38:25;;;;;;;5.20;4.70;;;25.20;56.50;;;;;;4994207;28;20428;-81
2023/07/28 04:40:54;;;;;;;5.00;4.60;;;25.20;56.60;;;;;;5003179;28;20529;-81
2023/07/28 04:43:22;;;;;;;4.80;4.50;;;25.20;56.70;;;;;;5011735;28;20534;-81
2023/07/28 04:45:50;;;;;;;4.70;4.30;;;25.20;56.70;;;;;;4990202;28;20492;-81
2023/07/28 04:48:17;;;;;;;4.70;4.30;;;25.20;56.80;;;;;;4994704;28;20429;-80
2023/07/28 04:50:45;;;;;;;4.70;4.30;;;25.20;56.70;;;;;;4998054;28;20868;-80
2023/07/28 04:53:13;;;;;;;4.00;3.70;;;25.20;56.80;;;;;;4996281;28;20491;-80
2023/07/28 04:55:42;;;;;;;4.10;3.80;;;25.20;56.70;;;;;;5008995;28;20461;-80
2023/07/28 04:58:10;;;;;;;4.50;4.10;;;25.20;56.70;;;;;;5019585;28;20439;-81
2023/07/28 05:00:38;;;;;;;4.67;4.27;;;25.20;56.70;;;;;;5011599;28;20460;-81
2023/07/28 05:03:06;;;;;;;4.50;4.13;;;25.20;56.60;;;;;;4997704;28;20491;-81
2023/07/28 05:05:34;;;;;;;3.97;3.70;;;25.20;56.70;;;;;;4997775;28;20490;-81
2023/07/28 05:08:01;;;;;;;4.17;3.87;;;25.20;56.60;;;;;;4997284;28;20412;-81
2023/07/28 05:10:29;;;;;;;4.33;4.00;;;25.20;56.60;;;;;;5004422;28;20453;-81
2023/07/28 05:12:59;;;;;;;3.63;3.43;;;25.20;56.50;;;;;;4999825;28;20457;-81
2023/07/28 05:15:27;;;;;;;3.67;3.40;;;25.20;56.50;;;;;;5001531;28;20503;-80
2023/07/28 05:17:55;;;;;;;7.77;3.57;;;25.30;56.60;;;;;;5005492;28;20423;-81
2023/07/28 05:20:23;;;;;;;3.90;3.70;;;25.30;56.50;;;;;;5000793;28;20514;-81
2023/07/28 05:22:50;;;;;;;4.20;3.90;;;25.30;56.60;;;;;;4995757;28;20451;-81
2023/07/28 05:25:19;;;;;;;3.20;3.00;;;25.30;56.60;;;;;;5016602;28;20510;-81
2023/07/28 05:27:46;;;;;;;3.30;3.10;;;25.30;56.50;;;;;;5017376;28;20887;-81
2023/07/28 05:30:16;;;;;;;3.50;3.20;;;25.30;56.50;;;;;;5014429;28;20432;-81
2023/07/28 05:32:46;;;;;;;3.43;3.23;;;25.30;56.40;;;;;;4996940;28;20475;-81
2023/07/28 05:35:14;;;;;;;3.23;3.03;;;25.30;56.50;;;;;;4990433;28;20447;-81
2023/07/28 05:37:41;;;;;;;4.00;3.70;;;25.30;56.40;;;;;;5012329;28;20529;-81
2023/07/28 05:40:11;;;;;;;3.33;3.13;;;25.40;56.40;;;;;;5014327;28;20474;-81
2023/07/28 05:42:38;;;;;;;3.60;3.37;;;25.40;56.40;;;;;;4995505;28;20411;-81
2023/07/28 05:45:08;;;;;;;3.60;3.40;;;25.40;56.30;;;;;;5000602;28;20487;-81
2023/07/28 05:47:37;;;;;;;3.57;3.37;;;25.40;56.30;;;;;;5002180;28;20503;-81
2023/07/28 05:50:06;;;;;;;3.67;3.37;;;25.50;56.40;;;;;;4996369;28;20449;-81
2023/07/28 05:52:34;;;;;;;2.97;2.87;;;25.40;56.30;;;;;;5000218;28;20478;-81
2023/07/28 05:55:02;;;;;;;3.07;2.90;;;25.40;56.30;;;;;;5006105;28;20439;-81
2023/07/28 05:57:30;;;;;;;4.17;2.83;;;25.40;56.30;;;;;;5016361;28;20419;-81
2023/07/28 05:59:58;;;;;;;2.97;2.80;;;25.50;56.30;;;;;;4997829;28;20473;-81
2023/07/28 06:02:26;;;;;;;2.87;2.73;;;25.50;56.30;;;;;;4995671;28;20540;-81
2023/07/28 06:04:56;;;;;;;3.73;3.20;;;25.50;56.30;;;;;;5003678;28;20454;-81
2023/07/28 06:07:26;;;;;;;3.00;2.90;;;25.50;56.40;;;;;;5014697;28;20454;-81
2023/07/28 06:09:53;;;;;;;3.60;2.90;;;25.50;56.40;;;;;;4994837;28;20533;-81
2023/07/28 06:12:22;;;;;;;3.00;2.90;;;25.50;56.40;;;;;;5000043;28;20447;-81
2023/07/28 06:14:50;;;;;;;3.97;3.53;;;25.50;56.50;;;;;;5014865;28;20526;-81
2023/07/28 06:17:18;;;;;;;2.93;2.80;;;25.50;56.60;;;;;;4995504;28;20459;-81
2023/07/28 06:19:46;;;;;;;3.10;2.90;;;25.60;56.60;;;;;;4992789;28;20459;-78
2023/07/28 06:22:15;;;;;;;3.90;2.90;;;25.50;56.60;;;;;;4985241;28;20789;-80
2023/07/28 06:24:43;;;;;;;2.77;2.67;;;25.50;56.50;;;;;;5000437;28;20567;-81
2023/07/28 06:27:12;;;;;;;3.20;3.00;;;25.50;56.50;;;;;;5000749;28;20939;-80
2023/07/28 06:29:40;;;;;;;3.20;2.97;;;25.50;56.60;;;;;;4989548;28;20461;-81
2023/07/28 06:32:08;;;;;;;2.90;2.70;;;25.60;56.60;;;;;;4992553;28;20510;-80
2023/07/28 06:34:37;;;;;;;2.80;2.60;;;25.60;56.70;;;;;;4996371;28;20471;-80
2023/07/28 06:37:05;;;;;;;3.17;2.87;;;25.60;56.70;;;;;;4987322;28;20467;-80
2023/07/28 06:39:34;;;;;;;2.63;2.53;;;25.60;56.60;;;;;;4996307;28;20453;-80
2023/07/28 06:42:02;;;;;;;2.90;2.67;;;25.60;56.70;;;;;;4995992;28;20531;-80
2023/07/28 06:44:30;;;;;;;3.23;2.67;;;25.60;56.70;;;;;;4982261;28;20455;-80
2023/07/28 06:46:57;;;;;;;2.73;2.50;;;25.60;56.60;;;;;;4999501;28;20436;-81
2023/07/28 06:49:25;;;;;;;3.07;2.87;;;25.60;56.70;;;;;;4999782;28;20532;-81
2023/07/28 06:51:53;;;;;;;3.00;2.80;;;25.60;56.70;;;;;;4996497;28;20420;-81
2023/07/28 06:54:21;;;;;;;2.77;2.57;;;25.60;56.80;;;;;;4996595;28;20458;-81
2023/07/28 06:56:50;;;;;;;3.10;2.90;;;25.60;56.70;;;;;;4996602;28;20407;-80
2023/07/28 06:59:18;;;;;;;3.90;2.70;;;25.60;56.80;;;;;;4991795;28;20896;-80
2023/07/28 07:01:49;;;;;;;3.60;2.93;;;25.60;56.70;;;;;;4990547;28;20426;-80
2023/07/28 07:04:17;;;;;;;3.47;2.57;;;25.60;56.70;;;;;;4988556;28;20502;-80
2023/07/28 07:06:45;;;;;;;3.10;2.57;;;25.60;56.70;;;;;;5011544;28;20962;-81
2023/07/28 07:09:14;;;;;;;4.20;2.77;;;25.70;56.70;;;;;;5011060;28;20508;-80
2023/07/28 07:11:42;;;;;;;3.10;2.60;;;25.60;56.60;;;;;;4997758;28;20484;-81
2023/07/28 07:14:11;;;;;;;2.80;2.60;;;25.70;56.70;;;;;;4992286;28;20461;-80
2023/07/28 07:16:39;;;;;;;2.83;2.73;;;25.70;56.80;;;;;;4992134;28;20520;-81
2023/07/28 07:19:07;;;;;;;4.07;2.80;;;25.70;56.80;;;;;;4989992;28;20484;-81
2023/07/28 07:21:35;;;;;;;2.50;2.40;;;25.70;56.70;;;;;;4990763;28;20456;-80
2023/07/28 07:24:04;;;;;;;4.23;2.43;;;25.80;56.50;;;;;;4991777;28;20458;-80
2023/07/28 07:26:32;;;;;;;3.63;2.57;;;25.80;56.50;;;;;;4991572;28;20447;-80
2023/07/28 07:29:00;;;;;;;2.57;2.47;;;25.90;56.50;;;;;;4991148;28;20453;-80
2023/07/28 07:31:29;;;;;;;3.20;3.00;;;25.90;56.60;;;;;;4992178;28;20468;-80
2023/07/28 07:33:56;;;;;;;2.50;2.30;;;25.90;56.30;;;;;;4993165;28;20516;-80
2023/07/28 07:36:24;;;;;;;2.77;2.60;;;26.00;56.30;;;;;;4985498;28;20456;-80
2023/07/28 07:38:52;;;;;;;2.90;2.70;;;25.90;56.10;;;;;;4992728;28;20508;-80
2023/07/28 07:41:22;;;;;;;3.20;3.00;;;25.90;56.00;;;;;;4990469;28;20453;-80
2023/07/28 07:43:51;;;;;;;3.00;2.80;;;25.90;56.30;;;;;;4993669;28;20530;-80
2023/07/28 07:46:19;;;;;;;2.87;2.77;;;26.00;56.10;;;;;;4991454;28;20549;-80
2023/07/28 07:48:48;;;;;;;4.33;2.63;;;26.00;56.10;;;;;;4995167;28;20461;-81
2023/07/28 07:51:17;;;;;;;2.97;2.60;;;26.00;56.30;;;;;;4996653;28;20455;-81
2023/07/28 07:53:45;;;;;;;2.40;2.30;;;26.00;56.20;;;;;;4989572;28;20535;-80
2023/07/28 07:56:12;;;;;;;2.73;2.53;;;26.00;56.40;;;;;;4992017;28;20455;-80
2023/07/28 07:58:41;;;;;;;2.60;2.50;;;26.00;56.50;;;;;;5007055;28;20494;-81
2023/07/28 08:01:08;;;;;;;2.80;2.60;;;26.10;56.60;;;;;;5014182;28;20429;-81
2023/07/28 08:03:37;;;;;;;3.00;2.80;;;26.00;56.40;;;;;;5026186;28;20445;-80
2023/07/28 08:06:07;;;;;;;3.10;2.90;;;26.00;56.50;;;;;;5015445;28;20559;-80
2023/07/28 08:08:35;;;;;;;2.73;2.53;;;26.10;56.60;;;;;;5003443;28;20525;-80
2023/07/28 08:11:03;;;;;;;2.87;2.67;;;26.10;56.70;;;;;;4990842;28;20425;-80
2023/07/28 08:13:31;;;;;;;2.47;2.37;;;26.20;56.40;;;;;;4996251;28;20458;-80
2023/07/28 08:15:59;;;;;;;2.93;2.73;;;26.20;56.40;;;;;;4999564;28;20460;-80
2023/07/28 08:18:27;;;;;;;2.70;2.60;;;26.20;56.40;;;;;;5002268;28;20441;-81
2023/07/28 08:20:55;;;;;;;3.00;2.80;;;26.30;56.60;;;;;;5003785;28;20427;-81
2023/07/28 08:23:25;;;;;;;3.10;2.57;;;26.30;56.50;;;;;;4997016;28;20999;-81
2023/07/28 08:25:52;;;;;;;2.70;2.60;;;26.30;56.50;;;;;;4992657;28;20513;-81
2023/07/28 08:28:24;;;;;;;3.10;2.60;;;26.40;56.70;;;;;;4993513;28;20425;-80
2023/07/28 08:30:56;;;;;;;3.63;2.80;;;26.40;56.80;;;;;;4995081;28;20439;-80
2023/07/28 08:33:24;;;;;;;2.63;2.43;;;26.50;56.70;;;;;;4992651;28;20457;-77
2023/07/28 08:35:52;;;;;;;2.90;2.70;;;26.60;56.60;;;;;;4992438;28;20511;-79
2023/07/28 08:38:20;;;;;;;3.67;2.70;;;26.60;56.40;;;;;;4991710;28;20439;-81
2023/07/28 08:40:49;;;;;;;2.97;2.47;;;26.70;56.20;;;;;;4993642;28;20548;-80
2023/07/28 08:43:17;;;;;;;2.67;2.47;;;26.90;56.20;;;;;;4992560;28;20507;-79
2023/07/28 08:45:52;;;;;;;3.20;2.73;;;26.90;55.90;;;;;;5032780;22;20502;-84
2023/07/28 08:49:16;;;;;;;2.73;2.20;;;27.00;56.00;;;;;;4992760;28;20412;-84
2023/07/28 08:52:21;;;;;;;2.93;2.70;;;27.00;56.00;;;;;;5019534;28;20433;-85
2023/07/28 08:54:53;;;;;;;2.47;2.30;;;26.90;56.00;;;;;;5024184;28;20446;-82
2023/07/28 08:57:56;;;;;;;2.87;2.67;;;26.80;56.10;;;;;;5037288;28;20448;-86
2023/07/28 09:00:37;;;;;;;2.67;2.57;;;26.90;56.50;;;;;;5015945;28;20466;-82
2023/07/28 09:03:13;;;;;;;3.83;2.57;;;26.80;56.50;;;;;;5020927;28;20419;-83
2023/07/28 09:05:55;;;;;;;5.13;2.70;;;26.80;56.30;;;;;;5030587;28;20497;-84
2023/07/28 09:08:33;;;;;;;2.50;2.30;;;26.90;56.30;;;;;;5028991;28;20447;-85
2023/07/28 09:12:08;;;;;;;2.30;2.20;;;27.00;56.50;;;;;;5019501;28;20416;-84
2023/07/28 09:14:48;;;;;;;3.40;2.60;;;27.40;56.70;;;;;;5003903;28;20438;-81
2023/07/28 09:17:56;;;;;;;6.83;2.40;;;27.70;56.60;;;;;;5016384;28;20452;-83
2023/07/28 09:21:37;;;;;;;2.70;2.50;;;28.00;56.50;;;;;;4992363;28;20538;-83
2023/07/28 09:24:11;;;;;;;2.40;2.30;;;28.30;56.20;;;;;;5024664;28;20535;-79
2023/07/28 09:26:39;;;;;;;2.60;2.50;;;28.70;55.70;;;;;;5025310;28;20506;-81
2023/07/28 09:29:14;;;;;;;2.70;2.50;;;28.80;55.10;;;;;;5014377;28;20418;-80
2023/07/28 09:31:44;;;;;;;2.37;2.10;;;28.80;54.80;;;;;;5024687;28;20459;-81
2023/07/28 09:34:13;;;;;;;2.57;2.37;;;28.90;54.80;;;;;;5015839;28;20535;-84
2023/07/28 09:36:41;;;;;;;2.80;2.60;;;28.80;54.90;;;;;;5011458;28;20436;-81
2023/07/28 09:39:08;;;;;;;2.63;2.43;;;28.80;54.90;;;;;;5016987;28;20480;-82
2023/07/28 09:41:38;;;;;;;2.00;1.80;;;28.70;55.00;;;;;;5026837;28;20447;-80
2023/07/28 09:44:06;;;;;;;2.60;2.40;;;28.70;55.30;;;;;;5005234;28;20460;-80
2023/07/28 09:46:38;;;;;;;2.93;2.50;;;28.60;55.30;;;;;;5021063;28;20503;-83
2023/07/28 09:49:11;;;;;;;2.60;2.40;;;28.50;55.50;;;;;;5014128;28;20452;-80
2023/07/28 09:51:39;;;;;;;2.37;2.17;;;28.40;55.60;;;;;;5017440;28;20494;-82
2023/07/28 09:54:11;;;;;;;2.70;2.50;;;28.40;56.00;;;;;;5024386;28;20471;-80
2023/07/28 09:56:40;;;;;;;2.70;2.50;;;28.40;55.80;;;;;;5019848;28;20441;-78
2023/07/28 09:59:10;;;;;;;2.13;2.03;;;28.40;55.90;;;;;;5024096;28;20497;-82
2023/07/28 10:01:38;;;;;;;2.50;2.30;;;28.30;56.00;;;;;;5023575;28;20466;-80
2023/07/28 10:04:07;;;;;;;2.93;2.10;;;28.20;56.00;;;;;;5012809;28;20440;-83
2023/07/28 10:06:37;;;;;;;2.20;2.10;;;28.20;56.30;;;;;;5019654;28;20509;-83
2023/07/28 10:09:06;;;;;;;2.53;2.33;;;28.10;56.50;;;;;;5018573;28;20860;-83
2023/07/28 10:11:34;;;;;;;3.40;2.47;;;28.20;56.40;;;;;;5014631;28;20454;-83
2023/07/28 10:14:02;;;;;;;2.60;2.17;;;28.20;56.50;;;;;;5018801;28;20452;-81
2023/07/28 10:16:32;;;;;;;2.30;2.20;;;28.40;56.80;;;;;;5023740;28;20436;-81
2023/07/28 10:19:00;;;;;;;2.23;2.00;;;28.60;57.00;;;;;;5027006;28;20452;-83
2023/07/28 10:21:45;;;;;;;6.60;2.37;;;28.90;57.00;;;;;;5016247;28;20448;-82
2023/07/28 10:24:16;;;;;;;2.60;2.40;;;29.40;57.10;;;;;;5007155;28;20505;-82
2023/07/28 10:26:44;;;;;;;2.30;2.20;;;29.80;56.10;;;;;;5012043;28;20475;-82
2023/07/28 10:29:14;;;;;;;2.43;2.23;;;30.00;55.50;;;;;;5011819;28;20524;-81
2023/07/28 10:31:51;;;;;;;3.23;1.80;;;30.10;55.10;;;;;;5008228;28;20535;-82
2023/07/28 10:34:19;;;;;;;2.63;1.90;;;30.20;54.70;;;;;;5006355;28;20453;-82
2023/07/28 10:36:59;;;;;;;2.10;1.83;;;30.20;54.40;;;;;;5016735;28;20471;-82
2023/07/28 10:39:32;;;;;;;2.40;2.20;;;30.20;54.30;;;;;;5014270;28;20498;-82
2023/07/28 10:42:09;;;;;;;2.23;2.10;;;30.50;55.10;;;;;;5010545;28;20456;-81
2023/07/28 10:44:42;;;;;;;6.47;2.40;;;30.70;55.20;;;;;;5015762;28;20471;-84
2023/07/28 10:47:16;;;;;;;1.87;1.77;;;31.10;55.20;;;;;;5012315;28;20465;-80
2023/07/28 10:49:47;;;;;;;2.20;2.00;;;31.50;54.90;;;;;;5009193;28;20827;-82
2023/07/28 10:52:20;;;;;;;2.07;1.97;;;32.00;54.50;;;;;;5029402;28;20522;-82
2023/07/28 10:54:53;;;;;;;2.27;2.10;;;32.30;53.20;;;;;;5017794;28;20469;-82
2023/07/28 10:57:26;;;;;;;3.23;2.10;;;32.30;52.60;;;;;;5019969;28;20491;-83
2023/07/28 10:59:54;;;;;;;3.87;1.93;;;32.20;52.40;;;;;;5011918;28;20551;-86
2023/07/28 11:02:23;;;;;;;2.00;1.90;;;32.10;52.40;;;;;;5014731;28;20928;-83
2023/07/28 11:04:59;;;;;;;3.03;1.90;;;32.00;52.50;;;;;;5025483;28;20494;-83
2023/07/28 11:07:29;;;;;;;1.90;1.80;;;31.80;52.60;;;;;;5016108;28;20476;-83
2023/07/28 11:10:03;;;;;;;2.60;2.40;;;31.70;53.00;;;;;;5016180;28;20453;-84
2023/07/28 11:12:39;;;;;;;1.83;1.70;;;31.60;53.10;;;;;;5018288;28;20507;-86
2023/07/28 11:15:21;;;;;;;3.30;2.83;;;31.60;53.10;;;;;;5016183;28;20526;-83
2023/07/28 11:17:50;;;;;;;1.90;1.80;;;31.50;53.20;;;;;;5013237;28;20507;-84
2023/07/28 11:20:23;;;;;;;6.63;1.90;;;31.50;53.20;;;;;;5016008;28;20460;-84
2023/07/28 11:22:56;;;;;;;1.90;1.80;;;31.40;53.20;;;;;;5026440;28;20436;-82
2023/07/28 11:25:27;;;;;;;3.40;2.40;;;31.20;53.30;;;;;;5021905;28;20452;-83
2023/07/28 11:27:56;;;;;;;3.23;2.27;;;31.10;53.40;;;;;;5020471;28;20472;-84
2023/07/28 11:30:27;;;;;;;2.00;1.80;;;31.00;53.70;;;;;;5026734;28;20457;-84
2023/07/28 11:32:55;;;;;;;1.93;1.70;;;31.20;53.90;;;;;;5025033;28;20482;-81
2023/07/28 11:35:23;;;;;;;2.60;2.20;;;31.30;53.60;;;;;;5021811;28;20464;-82
2023/07/28 11:37:54;;;;;;;2.77;1.90;;;31.40;53.50;;;;;;5025727;28;20439;-83
2023/07/28 11:40:22;;;;;;;2.23;2.07;;;31.80;53.70;;;;;;5029931;28;20438;-84
2023/07/28 11:42:52;;;;;;;2.17;1.67;;;31.90;52.60;;;;;;5026977;28;20552;-82
2023/07/28 11:45:22;;;;;;;1.70;1.70;;;32.10;52.80;;;;;;5017059;28;20504;-82
2023/07/28 11:47:57;;;;;;;2.00;1.90;;;33.00;52.10;;;;;;5012452;28;20519;-84
2023/07/28 11:50:26;;;;;;;1.90;1.70;;;33.90;50.70;;;;;;5024731;28;20944;-85
2023/07/28 11:52:56;;;;;;;2.10;1.77;;;34.30;50.30;;;;;;5021377;28;20447;-84
2023/07/28 11:55:34;;;;;;;1.87;1.77;;;34.00;49.60;;;;;;5027852;28;20460;-83
2023/07/28 11:58:04;;;;;;;2.00;1.80;;;34.80;50.10;;;;;;5017677;28;20443;-84
2023/07/28 12:00:34;;;;;;;2.50;1.80;;;35.50;49.20;;;;;;5018781;28;20447;-84
2023/07/28 12:03:06;;;;;;;1.30;1.30;;;36.10;48.50;;;;;;5017314;28;20451;-83
2023/07/28 12:05:34;;;;;;;1.97;1.70;;;36.70;47.70;;;;;;5016678;28;20448;-82
2023/07/28 12:08:04;;;;;;;1.40;1.40;;;37.20;47.60;;;;;;5020560;28;20492;-82
2023/07/28 12:10:35;;;;;;;4.20;1.60;;;37.60;46.50;;;;;;5019399;28;20453;-83
2023/07/28 12:13:06;;;;;;;1.80;1.70;;;37.20;45.40;;;;;;5019594;28;20521;-84
2023/07/28 12:15:41;;;;;;;3.70;1.50;;;37.40;45.40;;;;;;5020763;28;20499;-81
2023/07/28 12:18:13;;;;;;;1.80;1.70;;;37.00;45.20;;;;;;5017614;28;20452;-82
2023/07/28 12:20:49;;;;;;;5.27;1.60;;;36.60;45.30;;;;;;5018446;28;20445;-79
2023/07/28 12:23:28;;;;;;;1.67;1.67;;;36.20;45.60;;;;;;5016408;28;20450;-82
2023/07/28 12:26:02;;;;;;;1.67;1.57;;;35.70;46.30;;;;;;5018270;28;20475;-82
2023/07/28 12:28:30;;;;;;;3.23;1.80;;;35.30;47.10;;;;;;5022041;28;20476;-84
2023/07/28 12:31:11;;;;;;;1.43;1.43;;;34.90;47.80;;;;;;5017837;28;20538;-83
2023/07/28 12:33:39;;;;;;;1.83;1.73;;;35.40;49.50;;;;;;5015070;28;20440;-82
2023/07/28 12:36:07;;;;;;;2.50;1.80;;;35.90;48.90;;;;;;5012604;28;20519;-80
2023/07/28 12:38:39;;;;;;;1.87;1.77;;;36.30;48.50;;;;;;5016200;28;20472;-84
2023/07/28 12:41:09;;;;;;;1.80;1.70;;;36.50;46.80;;;;;;5017500;28;20527;-81
2023/07/28 12:43:39;;;;;;;3.53;2.00;;;36.50;45.90;;;;;;5016691;28;20440;-82
2023/07/28 12:46:11;;;;;;;1.87;1.87;;;36.10;46.30;;;;;;5016297;28;20465;-83
2023/07/28 12:48:39;;;;;;;1.70;1.70;;;35.90;48.00;;;;;;5000747;28;20501;-81
2023/07/28 12:51:10;;;;;;;1.67;1.57;;;36.20;48.40;;;;;;5010395;28;20456;-85
2023/07/28 12:53:40;;;;;;;1.83;1.70;;;36.50;48.40;;;;;;5015848;28;20487;-83
2023/07/28 12:56:08;;;;;;;1.60;1.50;;;36.80;47.70;;;;;;5017321;28;20464;-83
2023/07/28 12:58:36;;;;;;;1.30;1.30;;;37.40;46.70;;;;;;5016446;28;21029;-83
2023/07/28 13:01:08;;;;;;;1.60;1.50;;;37.50;45.20;;;;;;5015765;28;20538;-83